Time;durP1;ratioP1;P1;durP2;ratioP2;P2;SDS_P1;SDS_P2;PMS_P1;PMS_P2;Temp;Humidity;BMP_temperature;BMP_pressure;BME280_temperature;BME280_humidity;BME280_pressure;Samples;Min_cycle;Max_cycle;Signal;HPM_P1;HPM_P2
2023/10/05 00:02:45;;;;;;;16.70;8.70;;;;;;;9.96;76.43;99419.10;435629;1261;110097;-42
2023/10/05 00:12:49;;;;;;;19.60;9.20;;;;;;;9.92;76.71;99413.25;435672;1254;97999;-40
2023/10/05 00:22:54;;;;;;;17.50;9.50;;;;;;;9.88;76.76;99406.39;435760;1252;110347;-43
2023/10/05 00:33:00;;;;;;;15.10;8.90;;;;;;;9.75;76.87;99404.50;435775;1253;97467;-43
2023/10/05 00:43:08;;;;;;;14.60;7.80;;;;;;;9.70;77.13;99392.23;435379;1248;379435;-41
2023/10/05 00:53:13;;;;;;;13.30;7.60;;;;;;;9.70;77.16;99394.64;435754;1248;111708;-41
2023/10/05 01:03:23;;;;;;;14.70;7.90;;;;;;;9.70;77.12;99387.23;435505;1253;108183;-42
2023/10/05 01:13:31;;;;;;;16.30;9.20;;;;;;;9.45;77.17;99381.94;435905;1247;99284;-42
2023/10/05 01:23:38;;;;;;;20.50;10.30;;;;;;;9.29;77.83;99364.94;435670;1254;108394;-42
2023/10/05 01:33:46;;;;;;;16.30;10.60;;;;;;;9.29;77.81;99355.20;435587;1254;98834;-42
2023/10/05 01:43:52;;;;;;;21.10;10.70;;;;;;;9.22;78.01;99349.29;435747;1252;111259;-42
2023/10/05 01:54:11;;;;;;;18.20;9.10;;;;;;;9.16;78.22;99342.34;435677;1254;107441;-42
2023/10/05 02:04:16;;;;;;;20.80;8.70;;;;;;;9.15;78.31;99340.27;435966;1254;98725;-43
2023/10/05 02:14:21;;;;;;;16.00;9.80;;;;;;;9.11;78.55;99329.29;436463;1253;106852;-42
2023/10/05 02:24:29;;;;;;;19.80;10.40;;;;;;;9.06;78.79;99331.36;436393;1247;99231;-42
2023/10/05 02:34:41;;;;;;;17.70;8.80;;;;;;;9.15;78.82;99329.80;436547;1252;111013;-42
2023/10/05 02:44:45;;;;;;;19.00;8.90;;;;;;;9.36;79.12;99328.42;436433;1247;109196;-43
2023/10/05 02:54:50;;;;;;;20.50;9.10;;;;;;;9.67;79.33;99324.35;436378;1253;99381;-41
2023/10/05 03:05:07;;;;;;;18.90;8.90;;;;;;;9.92;79.12;99321.52;436422;1247;107718;-42
2023/10/05 03:15:12;;;;;;;27.40;12.40;;;;;;;9.95;79.15;99313.23;436364;1250;99225;-41
2023/10/05 03:25:16;;;;;;;18.60;10.00;;;;;;;9.92;79.05;99314.36;436453;1248;111450;-42
2023/10/05 03:35:26;;;;;;;16.00;9.50;;;;;;;10.01;79.02;99308.20;436367;1254;108063;-43
2023/10/05 03:45:31;;;;;;;19.40;9.20;;;;;;;10.12;78.97;99306.12;436426;1267;99221;-42
2023/10/05 03:55:35;;;;;;;15.30;7.90;;;;;;;10.22;78.94;99302.89;436330;1255;107225;-42
2023/10/05 04:05:44;;;;;;;13.70;8.90;;;;;;;10.21;78.90;99301.19;436313;1248;99247;-41
2023/10/05 04:15:50;;;;;;;16.50;9.30;;;;;;;10.13;78.89;99290.41;436459;1247;111959;-42
2023/10/05 04:25:56;;;;;;;15.50;9.20;;;;;;;9.92;78.64;99274.55;436516;1248;108111;-43
2023/10/05 04:36:03;;;;;;;18.40;9.50;;;;;;;9.57;78.67;99266.14;436337;1254;99266;-43
2023/10/05 04:46:09;;;;;;;17.90;8.80;;;;;;;9.27;78.74;99244.42;436229;1248;106798;-42
2023/10/05 04:56:22;;;;;;;15.20;8.80;;;;;;;9.08;78.92;99220.68;436534;1253;98567;-40
2023/10/05 05:06:27;;;;;;;14.50;8.30;;;;;;;8.94;79.37;99221.05;436466;1252;111922;-41
2023/10/05 05:16:31;;;;;;;19.40;8.10;;;;;;;8.96;79.55;99220.36;436364;1254;108398;-42
2023/10/05 05:26:38;;;;;;;24.40;12.90;;;;;;;9.01;79.92;99210.84;436549;1247;98014;-42
2023/10/05 05:36:42;;;;;;;15.70;10.70;;;;;;;9.05;80.20;99213.30;436502;1247;109893;-42
2023/10/05 05:46:46;;;;;;;23.20;11.70;;;;;;;9.27;80.26;99222.18;436435;1247;99239;-42
2023/10/05 05:56:54;;;;;;;27.70;12.60;;;;;;;9.68;80.44;99226.73;436459;1247;111524;-42
2023/10/05 06:06:58;;;;;;;19.00;10.60;;;;;;;10.51;80.49;99222.79;436479;1251;106820;-42
2023/10/05 06:17:03;;;;;;;18.10;10.00;;;;;;;11.62;80.44;99227.84;436337;1248;99234;-43
2023/10/05 06:27:07;;;;;;;16.60;9.60;;;;;;;12.19;79.50;99234.76;436328;1254;108448;-43
2023/10/05 06:37:11;;;;;;;18.60;8.30;;;;;;;12.13;78.78;99237.92;436557;1247;99215;-41
2023/10/05 06:47:35;;;;;;;12.50;6.20;;;;;;;12.06;78.41;99241.67;436455;1247;112433;-43
2023/10/05 06:57:43;;;;;;;12.20;5.40;;;;;;;12.20;78.18;99247.04;436372;1247;110522;-42
2023/10/05 07:07:51;;;;;;;10.40;6.00;;;;;;;12.57;78.05;99243.84;436485;1247;99222;-44
2023/10/05 07:17:55;;;;;;;12.50;5.90;;;;;;;12.85;77.66;99244.64;436519;1253;108591;-42
2023/10/05 07:28:00;;;;;;;12.00;5.30;;;;;;;13.05;77.26;99246.74;436482;1247;99244;-43
2023/10/05 07:38:04;;;;;;;11.50;4.70;;;;;;;13.35;76.60;99242.94;436414;1251;112861;-42
2023/10/05 07:48:09;;;;;;;7.90;4.70;;;;;;;13.71;76.36;99231.36;436374;1252;108649;-43
2023/10/05 07:58:13;;;;;;;7.60;3.50;;;;;;;14.37;75.82;99227.56;436492;1247;99290;-42
2023/10/05 08:08:17;;;;;;;7.80;3.80;;;;;;;15.39;75.13;99224.69;436363;1251;108538;-41
2023/10/05 08:18:22;;;;;;;5.60;3.30;;;;;;;15.87;72.68;99228.30;436484;1247;98696;-43
2023/10/05 08:28:31;;;;;;;7.30;3.70;;;;;;;15.54;71.69;99231.92;436533;1253;112201;-42
2023/10/05 08:38:35;;;;;;;6.60;3.00;;;;;;;15.58;70.91;99230.81;436463;1253;108536;-43
2023/10/05 08:48:41;;;;;;;4.00;2.60;;;;;;;16.09;69.44;99225.24;436372;1254;99263;-42
2023/10/05 08:58:46;;;;;;;10.00;3.50;;;;;;;16.67;69.12;99214.05;436400;1253;107166;-43
2023/10/05 09:09:01;;;;;;;5.50;3.00;;;;;;;17.24;68.24;99196.98;436586;1247;99228;-42
2023/10/05 09:19:05;;;;;;;7.30;3.60;;;;;;;17.52;66.35;99207.61;436414;1247;112231;-42
2023/10/05 09:29:28;;;;;;;11.90;3.90;;;;;;;17.27;65.59;99203.24;436576;1247;108330;-43
2023/10/05 09:39:35;;;;;;;5.60;3.30;;;;;;;17.28;65.01;99208.45;436443;1248;99453;-42
2023/10/05 09:49:45;;;;;;;7.70;4.20;;;;;;;17.32;64.32;99205.26;436274;1247;107752;-42
2023/10/05 09:59:58;;;;;;;6.60;3.40;;;;;;;17.61;63.92;99200.01;436319;1247;99188;-41
2023/10/05 10:10:04;;;;;;;8.70;3.60;;;;;;;17.44;62.24;99196.77;436446;1253;111197;-41
2023/10/05 10:20:34;;;;;;;5.40;2.80;;;;;;;17.36;62.01;99193.90;436422;1253;108373;-42
2023/10/05 10:30:39;;;;;;;5.30;2.70;;;;;;;17.65;61.47;99192.91;436599;1247;98003;-42
2023/10/05 10:40:53;;;;;;;8.30;3.10;;;;;;;17.83;61.37;99182.61;436328;1247;108752;-42
2023/10/05 10:50:59;;;;;;;6.80;3.00;;;;;;;17.85;60.35;99184.11;436527;1247;97987;-42
2023/10/05 11:01:13;;;;;;;5.20;2.70;;;;;;;17.60;59.57;99181.75;436468;1252;111408;-42
2023/10/05 11:11:19;;;;;;;5.10;2.60;;;;;;;17.53;59.04;99176.82;436335;1247;108551;-43
2023/10/05 11:21:26;;;;;;;7.20;2.90;;;;;;;17.29;58.84;99159.23;436435;1248;99221;-43
2023/10/05 11:31:34;;;;;;;8.20;3.10;;;;;;;17.33;58.99;99143.69;436484;1247;107232;-42
2023/10/05 11:41:59;;;;;;;9.20;4.10;;;;;;;17.80;58.77;99124.98;436590;1247;98307;-43
2023/10/05 11:52:11;;;;;;;8.10;4.00;;;;;;;17.85;56.85;99118.69;436414;1253;111110;-43
2023/10/05 12:02:22;;;;;;;10.00;5.00;;;;;;;17.63;56.83;99115.24;436296;1261;109363;-43
2023/10/05 12:12:30;;;;;;;7.90;4.40;;;;;;;17.68;57.42;99108.25;436379;1264;99220;-42
2023/10/05 12:22:37;;;;;;;;;;;;;;;17.74;56.98;99108.34;436395;1253;108846;-43
2023/10/05 12:32:41;;;;;;;16.90;4.60;;;;;;;17.62;56.68;99106.57;436379;1253;99308;-41
2023/10/05 12:42:51;;;;;;;7.80;4.20;;;;;;;17.56;56.47;99100.78;436290;1247;388055;-41
2023/10/05 12:53:09;;;;;;;9.20;4.30;;;;;;;17.42;56.51;99096.14;436263;1252;108269;-42
2023/10/05 13:03:17;;;;;;;12.10;4.40;;;;;;;17.32;55.96;99095.73;436471;1247;99119;-42
2023/10/05 13:13:21;;;;;;;12.30;3.90;;;;;;;17.36;55.31;99091.79;436355;1252;108656;-42
2023/10/05 13:23:26;;;;;;;7.60;3.40;;;;;;;17.47;55.37;99090.48;436465;1253;99225;-42
2023/10/05 13:33:34;;;;;;;13.50;4.80;;;;;;;17.29;54.63;99083.27;436457;1252;112120;-42
2023/10/05 13:43:39;;;;;;;13.30;4.60;;;;;;;17.29;54.79;99084.45;436414;1252;107624;-43
2023/10/05 13:53:45;;;;;;;9.50;4.90;;;;;;;17.14;54.53;99080.64;436409;1247;98023;-42
2023/10/05 14:03:50;;;;;;;10.20;3.80;;;;;;;16.82;54.54;99071.67;436277;1261;108510;-42
2023/10/05 14:13:54;;;;;;;10.80;4.80;;;;;;;16.50;54.95;99061.27;436370;1247;99124;-42
2023/10/05 14:23:58;;;;;;;11.40;5.00;;;;;;;16.32;55.44;99053.62;436567;1251;112212;-43
2023/10/05 14:34:05;;;;;;;13.00;5.30;;;;;;;16.22;55.89;99052.31;436350;1247;108284;-42
2023/10/05 14:44:10;;;;;;;9.70;4.40;;;;;;;16.16;56.31;99054.85;436509;1247;98852;-42
2023/10/05 14:54:13;;;;;;;14.60;5.10;;;;;;;16.02;56.62;99058.35;436121;1253;107673;-42
2023/10/05 15:04:19;;;;;;;11.90;5.70;;;;;;;15.92;57.17;99055.72;436294;1253;99240;-42
2023/10/05 15:14:23;;;;;;;11.60;5.10;;;;;;;15.77;57.54;99053.39;436589;1253;112686;-42
2023/10/05 15:24:30;;;;;;;19.30;6.10;;;;;;;15.66;58.08;99054.30;436303;1247;108555;-42
2023/10/05 15:34:34;;;;;;;11.90;4.60;;;;;;;15.49;58.32;99053.84;436273;1252;98709;-42
2023/10/05 15:44:42;;;;;;;15.40;7.20;;;;;;;15.30;58.70;99061.98;436359;1253;108200;-42
2023/10/05 15:54:49;;;;;;;11.60;5.40;;;;;;;15.12;58.98;99070.04;436356;1253;99298;-41
2023/10/05 16:04:54;;;;;;;19.30;6.80;;;;;;;15.00;59.58;99079.33;436412;1251;112019;-42
2023/10/05 16:14:58;;;;;;;16.50;5.60;;;;;;;14.78;59.97;99087.08;436482;1248;107496;-42
2023/10/05 16:25:03;;;;;;;11.00;4.70;;;;;;;14.63;60.39;99088.79;436539;1248;97902;-42
2023/10/05 16:35:08;;;;;;;12.20;5.00;;;;;;;14.52;60.68;99096.77;436320;1254;106817;-43
2023/10/05 16:45:13;;;;;;;12.70;5.10;;;;;;;14.39;61.08;99099.73;436348;1254;99191;-42
2023/10/05 16:55:20;;;;;;;12.20;4.80;;;;;;;14.34;61.35;99093.54;436304;1261;110858;-41
2023/10/05 17:05:27;;;;;;;14.20;5.90;;;;;;;14.35;61.67;99089.98;436394;1263;108535;-42
2023/10/05 17:15:31;;;;;;;16.20;6.60;;;;;;;14.31;62.09;99099.44;436405;1248;97954;-43
2023/10/05 17:25:59;;;;;;;12.00;5.50;;;;;;;14.17;62.16;99112.94;436470;1253;107262;-42
2023/10/05 17:36:04;;;;;;;12.70;6.50;;;;;;;14.08;62.75;99126.73;436458;1261;99231;-41
2023/10/05 17:46:08;;;;;;;16.70;6.10;;;;;;;13.99;62.97;99132.11;436479;1248;111874;-42
2023/10/05 17:56:12;;;;;;;16.30;6.00;;;;;;;13.94;63.34;99145.15;436336;1261;108846;-41
2023/10/05 18:06:16;;;;;;;14.40;5.50;;;;;;;13.88;63.68;99155.67;436376;1261;99230;-42
2023/10/05 18:16:24;;;;;;;18.00;7.90;;;;;;;13.93;63.91;99161.02;436506;1252;107361;-41
2023/10/05 18:26:28;;;;;;;12.00;6.70;;;;;;;13.95;64.16;99163.93;436494;1248;99215;-42
2023/10/05 18:36:32;;;;;;;15.80;6.60;;;;;;;13.89;64.39;99170.57;436553;1248;112086;-42
2023/10/05 18:46:42;;;;;;;17.00;6.40;;;;;;;13.83;64.58;99180.79;436295;1261;107275;-44
2023/10/05 18:56:47;;;;;;;13.90;5.70;;;;;;;13.73;64.86;99190.58;436416;1248;99166;-43
2023/10/05 19:06:51;;;;;;;15.00;5.70;;;;;;;13.70;65.00;99190.30;436494;1251;108442;-42
2023/10/05 19:16:55;;;;;;;15.20;6.50;;;;;;;13.76;65.39;99196.01;436236;1253;99266;-43
2023/10/05 19:27:00;;;;;;;15.80;6.00;;;;;;;13.80;65.60;99216.93;436453;1261;111009;-43
2023/10/05 19:37:06;;;;;;;14.30;6.80;;;;;;;13.61;66.37;99235.05;436239;1253;108523;-41
2023/10/05 19:47:17;;;;;;;13.20;6.90;;;;;;;13.29;67.71;99262.86;436349;1254;99215;-42
2023/10/05 19:57:22;;;;;;;8.30;3.50;;;;;;;12.92;69.19;99273.80;436407;1254;108499;-42
2023/10/05 20:07:25;;;;;;;3.80;1.90;;;;;;;12.56;70.61;99270.50;436527;1248;99221;-42
2023/10/05 20:17:29;;;;;;;2.30;1.40;;;;;;;12.26;71.05;99287.79;436475;1253;110618;-44
2023/10/05 20:27:34;;;;;;;2.20;1.50;;;;;;;12.09;71.50;99283.37;436320;1254;109477;-44
2023/10/05 20:37:38;;;;;;;3.20;1.60;;;;;;;11.98;72.19;99283.94;436491;1247;99135;-43
2023/10/05 20:47:41;;;;;;;6.80;1.80;;;;;;;11.92;72.77;99272.23;436415;1254;107248;-42
2023/10/05 20:57:53;;;;;;;7.00;2.10;;;;;;;11.88;73.05;99287.98;436482;1254;99361;-43
2023/10/05 21:08:02;;;;;;;6.50;2.00;;;;;;;11.77;73.40;99288.94;436320;1252;112824;-43
2023/10/05 21:18:06;;;;;;;1.90;1.40;;;;;;;11.76;74.00;99289.77;436381;1261;107878;-43
2023/10/05 21:28:12;;;;;;;3.00;2.10;;;;;;;11.86;74.52;99294.60;436418;1254;98820;-42
2023/10/05 21:38:16;;;;;;;4.70;2.30;;;;;;;11.84;74.76;99297.06;436432;1253;108600;-42
2023/10/05 21:48:20;;;;;;;6.40;2.50;;;;;;;11.81;75.08;99299.50;436254;1248;99221;-42
2023/10/05 21:58:24;;;;;;;3.80;2.00;;;;;;;11.76;75.25;99295.09;436287;1255;111079;-43
2023/10/05 22:08:28;;;;;;;7.40;2.80;;;;;;;11.68;75.31;99300.07;436429;1248;106990;-43
2023/10/05 22:18:32;;;;;;;10.40;4.40;;;;;;;11.52;75.75;99293.30;436251;1253;99725;-42
2023/10/05 22:28:40;;;;;;;8.60;4.10;;;;;;;11.35;76.02;99290.71;436329;1247;107742;-41
2023/10/05 22:38:43;;;;;;;8.70;5.00;;;;;;;11.37;76.59;99299.23;436311;1252;99167;-43
2023/10/05 22:48:48;;;;;;;14.10;5.80;;;;;;;11.48;76.93;99310.42;436497;1254;110840;-42
2023/10/05 22:58:52;;;;;;;14.90;5.20;;;;;;;11.54;76.98;99318.73;436421;1254;107515;-43
2023/10/05 23:08:59;;;;;;;12.60;4.70;;;;;;;11.68;77.57;99333.73;436364;1254;99246;-41
2023/10/05 23:19:09;;;;;;;10.60;4.70;;;;;;;11.84;77.95;99344.60;436190;1247;108539;-41
2023/10/05 23:29:19;;;;;;;8.20;4.60;;;;;;;11.92;78.35;99353.33;436496;1247;100150;-43
2023/10/05 23:39:23;;;;;;;8.80;4.50;;;;;;;12.00;78.67;99365.42;436329;1253;112728;-43
2023/10/05 23:49:31;;;;;;;9.90;4.60;;;;;;;11.98;79.04;99363.89;436272;1255;107790;-43
2023/10/05 23:59:36;;;;;;;8.60;4.50;;;;;;;11.98;79.34;99377.30;436340;1253;99224;-41
